Date,TemperatureHighF,TemperatureAvgF,TemperatureLowF,DewpointHighF,DewpointAvgF,DewpointLowF,HumidityHigh,HumidityAvg,HumidityLow,PressureMaxIn,PressureMinIn,WindSpeedMaxMPH,WindSpeedAvgMPH,GustSpeedMaxMPH,PrecipitationSumIn
2013-1-1,30.6,22.7,9.5,27.4,14.8,2.8,88,72,57,29.89,29.62,13,2,17,0.00
2013-1-2,22.4,8.8,-1.8,12.4,1.8,-4.7,92,73,54,30.09,29.87,7,1,12,0.00
2013-1-3,18.6,5.0,-8.5,5.6,-1.6,-10.8,86,73,51,30.12,29.97,7,0,0,0.00
2013-1-4,33.6,20.7,-0.9,26.0,15.8,-3.7,94,81,64,29.97,29.75,12,1,17,0.00
2013-1-5,32.0,26.1,12.5,27.0,19.0,9.6,89,75,56,30.24,29.76,12,1,13,0.00
2013-1-6,32.1,22.4,11.0,25.7,19.4,8.7,93,88,76,30.21,29.92,5,0,0,0.00
2013-1-7,29.0,21.3,5.5,25.4,16.7,3.0,97,83,59,30.38,29.93,10,1,0,0.00
2013-1-8,39.2,20.0,2.3,27.6,15.5,-0.2,96,84,57,30.37,30.22,9,1,13,0.00
2013-1-9,35.1,25.4,12.4,29.1,22.3,10.5,94,88,74,30.41,29.92,9,0,0,0.00
2013-1-10,40.1,33.9,23.8,33.5,27.6,21.8,94,78,61,30.52,29.94,10,2,16,0.04
2013-1-11,36.1,27.6,16.3,31.4,23.6,14.7,97,86,63,30.51,30.23,4,0,0,0.12
2013-1-12,37.6,33.6,32.1,37.2,33.2,31.3,99,98,97,30.23,30.11,2,0,0,0.06
2013-1-13,38.6,34.7,32.8,38.5,34.5,32.6,100,99,99,30.14,29.95,3,0,0,0.01
2013-1-14,51.7,37.3,29.9,48.6,35.2,28.4,100,93,65,30.22,29.84,8,1,0,0.01
2013-1-15,36.9,30.5,24.8,29.3,25.5,23.0,96,82,58,30.30,30.21,7,0,0,0.00
2013-1-16,29.2,27.9,26.5,27.9,26.1,23.8,97,93,83,30.25,29.77,4,0,0,0.00
2013-1-17,35.8,26.5,17.2,31.7,21.5,5.4,98,82,58,30.11,29.77,10,1,12,0.00
2013-1-18,17.2,9.9,0.8,6.5,-1.0,-7.3,89,62,42,30.40,30.06,12,1,13,0.00
2013-1-19,33.9,23.6,3.0,26.3,18.3,0.5,93,80,63,30.34,29.84,3,0,0,0.00
2013-1-20,45.3,31.3,21.9,33.8,22.2,5.3,98,71,45,29.86,29.46,22,3,22,0.00
2013-1-21,23.5,18.7,12.2,16.2,7.0,1.4,92,61,42,30.04,29.80,13,2,13,0.00
2013-1-22,21.6,13.6,3.1,15.1,7.1,-3.9,92,76,48,30.04,29.77,11,1,17,0.00
2013-1-23,3.7,-0.0,-5.8,-3.7,-10.1,-13.3,82,59,43,30.12,30.02,10,2,14,0.00
2013-1-24,9.7,2.5,-5.0,-5.3,-9.6,-14.1,63,54,40,30.19,30.01,14,3,14,0.00
2013-1-25,16.7,9.3,2.6,1.5,-2.8,-6.2,69,57,41,30.25,30.06,13,2,14,0.00
2013-1-26,19.4,11.5,0.4,4.2,0.8,-2.7,88,63,42,30.17,30.00,7,1,0,0.00
2013-1-27,22.0,14.2,9.2,6.3,1.1,-3.4,68,56,43,30.43,30.16,11,2,13,0.00
2013-1-28,23.2,15.5,6.2,17.7,8.6,-0.3,92,75,38,30.43,30.06,3,0,0,0.00
2013-1-29,31.8,23.6,8.1,30.4,21.2,5.5,97,90,79,30.20,30.06,4,0,0,0.00
2013-1-30,37.9,33.3,31.2,37.8,32.9,30.4,100,99,97,30.15,29.40,4,0,0,0.36
2013-1-31,55.5,40.7,25.7,55.5,34.4,13.6,100,80,51,29.47,28.82,22,4,26,0.56
2013-2-1,27.0,21.9,14.0,18.8,10.4,4.3,75,61,48,30.04,29.47,13,2,15,0.00
2013-2-2,23.2,17.3,11.0,14.2,8.1,3.1,79,67,50,30.19,30.03,7,1,0,0.00
2013-2-3,26.6,21.5,15.3,16.9,14.6,12.3,90,75,59,30.04,29.70,9,1,0,0.00
2013-2-4,27.6,20.7,14.6,17.4,8.4,-1.2,91,61,32,29.87,29.67,17,2,19,0.00
2013-2-5,24.2,14.6,2.9,11.9,4.2,-0.9,88,65,40,30.02,29.87,9,1,0,0.00
2013-2-6,33.5,22.7,15.2,24.7,14.5,-2.6,90,72,38,30.29,29.93,11,1,0,0.01
2013-2-7,20.7,14.9,9.5,5.9,-0.8,-5.3,65,50,31,30.53,30.27,7,1,0,0.00
2013-2-8,16.2,13.0,9.8,12.3,8.0,-2.5,92,82,43,30.53,29.83,19,4,19,0.00
2013-2-9,20.9,15.1,1.6,19.7,13.5,-1.0,95,93,89,30.18,29.73,20,2,25,0.00
2013-2-10,30.2,10.9,-8.8,27.3,8.7,-10.7,92,90,86,30.39,30.18,8,1,0,0.00
2013-2-11,29.6,18.2,2.8,29.4,17.0,0.5,99,95,89,30.36,29.61,4,0,0,0.00
2013-2-12,38.3,32.6,26.0,35.2,31.8,25.5,100,97,87,29.80,29.56,9,1,13,0.00
2013-2-13,38.4,28.8,20.7,31.5,23.9,19.0,96,83,55,29.82,29.73,7,1,14,0.00
2013-2-14,36.9,26.5,19.3,25.3,21.3,17.5,95,82,57,29.98,29.70,10,1,0,0.00
2013-2-15,45.8,29.3,15.3,31.2,24.4,13.5,95,83,54,29.97,29.88,6,0,0,0.00
2013-2-16,36.6,31.4,27.1,28.8,23.8,9.5,96,75,47,29.95,29.75,6,1,0,0.01
2013-2-17,27.0,19.3,12.8,17.2,10.2,3.3,89,68,45,29.74,29.32,17,2,17,0.01
2013-2-18,26.1,17.0,8.8,8.5,2.3,-2.9,70,53,33,30.08,29.56,16,4,22,0.00
2013-2-19,39.1,27.2,13.5,32.3,13.8,-1.6,98,60,26,30.14,29.54,7,1,0,0.13
2013-2-20,33.2,29.1,22.3,32.7,23.8,15.4,98,81,65,29.70,29.47,12,2,15,0.05
2013-2-21,25.7,20.8,13.7,17.3,13.3,8.7,89,73,58,30.21,29.68,12,2,16,0.00
2013-2-22,37.9,23.0,5.2,25.7,16.4,2.6,92,78,47,30.42,30.19,7,1,0,0.00
2013-2-23,34.3,30.0,24.2,32.2,27.9,22.0,98,92,83,30.34,29.97,4,0,0,0.01
2013-2-24,31.6,30.2,27.9,31.0,29.5,27.2,98,97,96,29.97,29.76,4,0,0,0.00
2013-2-25,37.0,30.1,21.4,33.2,28.8,20.2,98,95,84,30.23,29.90,4,0,0,0.33
2013-2-26,37.8,33.1,28.7,33.0,31.0,28.0,99,92,80,30.34,30.20,4,0,0,0.04
2013-2-27,34.5,31.8,29.9,33.5,30.9,29.0,99,96,90,30.20,29.64,10,2,13,0.14
2013-2-28,40.9,33.9,29.6,37.5,32.8,29.1,99,96,87,29.64,29.53,5,0,0,0.01
2013-3-1,36.5,32.6,28.0,32.0,30.4,27.5,99,92,80,29.66,29.53,8,0,0,0.00
2013-3-2,40.5,33.0,26.9,31.2,28.7,25.7,97,85,64,29.66,29.59,8,1,12,0.01
2013-3-3,37.8,31.7,27.8,31.8,28.5,25.1,95,88,76,29.63,29.54,5,0,0,0.13
2013-3-4,33.8,28.8,25.4,25.6,23.1,21.3,85,79,68,29.75,29.54,16,2,16,0.00
2013-3-5,42.2,32.3,24.5,33.3,26.9,21.0,96,81,62,30.09,29.75,9,1,0,0.00
2013-3-6,36.4,33.5,30.0,33.3,29.9,26.9,96,87,72,30.21,30.09,12,3,16,0.02
2013-3-7,33.8,30.9,29.2,28.3,26.1,24.5,92,82,72,30.18,30.07,18,4,19,0.00
2013-3-8,47.2,35.9,28.0,26.7,23.2,18.1,94,63,32,30.20,30.02,18,3,19,0.02
2013-3-9,53.7,33.4,18.7,29.0,20.6,7.3,94,68,16,30.36,30.18,7,1,0,0.00
2013-3-10,44.5,31.9,18.8,31.0,25.7,17.4,95,80,51,30.41,30.28,7,1,0,0.00
2013-3-11,48.5,35.9,27.8,33.5,30.5,27.0,97,82,49,30.31,30.12,8,1,0,0.00
2013-3-12,44.9,37.0,31.1,44.9,36.5,29.6,100,98,94,30.13,29.70,7,1,0,0.47
2013-3-13,45.3,36.9,26.8,39.9,33.5,25.8,100,89,60,29.75,29.67,9,1,13,0.01
2013-3-14,34.7,26.7,17.7,26.2,19.6,6.2,97,76,57,29.78,29.63,11,2,15,0.00
2013-3-15,34.7,24.0,14.9,28.4,14.0,4.2,96,67,39,29.81,29.60,13,2,14,0.00
2013-3-16,31.9,24.9,16.6,24.5,16.4,11.7,95,72,47,29.88,29.65,8,1,0,0.07
2013-3-17,29.6,20.6,11.0,15.9,8.7,0.5,92,62,37,30.30,29.88,13,2,19,0.00
2013-3-18,33.7,19.7,1.3,21.4,6.5,-1.7,90,61,23,30.44,30.25,8,1,0,0.00
2013-3-19,31.3,27.1,22.2,29.7,25.2,20.5,96,93,71,30.25,29.70,10,1,13,0.00
2013-3-20,33.6,26.5,19.2,26.9,21.5,17.5,97,82,62,29.74,29.65,10,2,15,0.13
2013-3-21,36.7,24.6,7.8,24.0,16.4,5.2,94,73,38,29.77,29.59,8,1,0,0.41
2013-3-22,37.1,25.9,15.0,23.5,18.2,13.1,93,75,46,29.68,29.60,10,1,0,0.02
2013-3-23,37.7,29.8,19.7,25.7,22.2,16.9,90,74,53,29.72,29.56,13,2,19,0.00
2013-3-24,43.4,34.0,24.5,27.8,24.7,21.9,90,70,46,29.80,29.70,10,2,14,0.00
2013-3-25,41.9,30.3,16.9,30.7,25.0,15.5,94,82,59,29.78,29.57,10,1,14,0.00
2013-3-26,46.7,36.3,26.9,29.3,24.4,19.0,88,64,36,29.76,29.57,9,1,12,0.00
2013-3-27,48.7,34.1,20.6,33.3,26.9,19.3,97,77,45,29.88,29.73,9,1,13,0.01
2013-3-28,45.2,35.8,29.5,36.9,32.1,28.0,99,87,60,30.00,29.88,5,0,0,0.02
2013-3-29,50.5,38.2,29.6,37.0,32.3,28.5,98,81,55,30.03,29.96,10,1,14,0.00
2013-3-30,51.2,37.4,26.3,32.7,26.8,17.0,97,70,28,30.09,29.99,10,1,13,0.00
2013-3-31,54.1,36.7,20.3,36.6,25.2,18.9,96,69,30,30.11,29.80,8,1,0,0.01
2013-4-1,52.1,39.0,30.0,43.1,34.5,17.1,99,85,50,29.80,29.46,16,2,16,0.42
2013-4-2,35.7,29.9,24.5,18.8,14.4,10.5,63,52,38,29.84,29.71,18,3,22,0.00
2013-4-3,42.2,32.7,25.4,20.6,14.1,7.5,68,48,26,30.09,29.83,15,3,19,0.00
2013-4-4,51.0,36.2,24.6,27.2,17.9,10.7,86,51,22,30.23,29.96,11,2,15,0.00
2013-4-5,56.7,39.3,29.2,30.4,26.1,19.4,90,63,31,29.96,29.65,10,1,13,0.00
2013-4-6,39.9,31.0,23.7,19.7,10.8,2.5,76,45,23,30.33,29.85,13,2,15,0.00
2013-4-7,53.6,37.6,22.4,36.3,23.8,16.0,84,61,30,30.32,29.93,12,2,14,0.00
2013-4-8,57.9,43.0,30.3,39.1,33.7,29.0,98,73,41,30.11,29.90,10,1,12,0.00
2013-4-9,55.4,42.4,34.9,47.8,39.8,32.3,99,91,68,30.09,29.88,9,1,12,0.29
2013-4-10,56.4,45.9,39.0,48.8,43.1,38.0,100,90,68,29.98,29.86,7,0,0,0.70
2013-4-11,48.8,42.7,37.2,43.1,36.0,25.2,99,79,49,30.17,29.85,9,0,0,0.06
2013-4-12,37.9,32.6,30.1,31.3,27.0,17.8,97,81,47,30.22,29.86,6,1,0,0.02
2013-4-13,49.2,37.4,31.2,40.3,34.5,30.4,98,90,66,29.91,29.78,8,1,0,0.43
2013-4-14,52.8,39.4,28.7,39.8,34.0,27.5,99,83,48,30.20,29.88,10,1,13,0.00
2013-4-15,55.7,39.8,24.9,36.5,30.5,23.9,98,74,37,30.39,30.20,8,1,0,0.00
2013-4-16,63.1,46.4,29.0,51.9,40.7,28.3,99,82,50,30.39,29.97,12,2,14,0.04
2013-4-17,61.9,50.0,31.8,52.7,36.8,29.5,93,64,35,30.33,29.97,11,2,15,0.00
2013-4-18,56.0,43.1,26.9,40.2,31.5,24.4,96,67,39,30.45,30.12,9,2,12,0.00
2013-4-19,73.4,60.2,49.2,61.2,53.6,35.8,95,80,58,30.13,29.56,14,2,22,0.02
2013-4-20,63.3,48.5,37.8,61.2,37.7,22.8,95,69,43,30.17,29.57,14,2,17,0.32
2013-4-21,50.1,38.4,27.1,29.2,23.0,17.8,88,56,30,30.69,30.17,10,2,13,0.00
2013-4-22,51.4,36.8,24.8,30.8,24.3,15.5,94,65,26,30.78,30.63,10,2,13,0.00
2013-4-23,40.0,34.9,26.9,38.7,33.0,25.7,97,93,85,30.63,30.18,8,1,0,0.00
2013-4-24,71.3,52.8,39.5,54.9,46.5,38.7,98,82,42,30.18,29.72,8,1,0,0.00
2013-4-25,59.1,51.3,32.2,50.3,36.8,26.6,91,60,31,30.28,29.72,12,2,18,0.00
2013-4-26,59.4,43.2,27.0,40.0,31.9,25.8,96,69,35,30.42,30.28,8,1,0,0.00
2013-4-27,64.0,46.7,29.3,41.9,34.3,26.9,99,69,27,30.42,30.25,9,1,0,0.00
2013-4-28,68.5,48.6,30.1,44.3,36.3,29.4,98,68,31,30.33,30.19,10,1,0,0.00
2013-4-29,69.8,50.2,33.8,48.0,39.1,33.0,98,70,36,30.25,30.14,10,1,0,0.00
2013-4-30,70.9,53.1,36.1,44.8,38.3,32.7,97,63,30,30.36,30.23,9,1,0,0.00
2013-5-1,72.9,51.5,29.6,41.9,35.6,27.1,95,62,22,30.45,30.36,8,1,0,0.00
2013-5-2,76.1,49.4,35.0,47.2,38.2,29.2,98,70,26,30.51,30.35,13,1,15,0.00
2013-5-3,64.9,47.9,29.8,49.2,39.6,29.1,99,76,48,30.53,30.37,11,1,0,0.00
2013-5-4,69.5,49.7,34.3,44.9,38.7,30.4,100,71,26,30.38,30.24,9,1,0,0.00
2013-5-5,68.0,47.7,29.4,44.1,37.0,28.6,99,72,32,30.33,30.20,9,1,0,0.00
2013-5-6,72.4,50.9,30.3,47.8,39.2,29.6,99,71,27,30.25,30.11,6,1,0,0.00
2013-5-7,79.3,57.6,35.9,55.2,46.6,35.4,99,73,28,30.15,30.04,7,1,0,0.00
2013-5-8,74.7,60.0,45.1,62.6,54.8,44.8,100,85,52,30.20,30.06,8,1,13,0.06
2013-5-9,66.6,57.8,52.8,60.8,56.9,52.8,100,97,76,30.05,29.87,5,0,0,0.34
2013-5-10,75.0,61.7,53.4,63.1,57.2,53.4,100,87,52,29.93,29.86,6,0,0,0.00
2013-5-11,67.7,59.0,53.5,63.7,58.3,53.2,100,98,85,29.87,29.65,5,0,0,0.45
2013-5-12,67.3,56.5,45.5,57.3,49.9,31.9,100,80,49,29.74,29.52,9,1,14,0.06
2013-5-13,53.2,45.8,40.2,37.7,32.7,29.3,85,61,42,30.02,29.74,12,2,18,0.00
2013-5-14,57.8,45.8,34.2,37.2,33.4,27.4,95,66,34,30.03,29.93,9,1,17,0.00
2013-5-15,65.4,46.2,28.3,50.4,38.5,27.3,100,80,34,30.04,29.65,8,1,0,0.13
2013-5-16,75.3,59.2,46.3,53.1,46.7,37.6,100,70,26,29.79,29.57,10,1,16,0.00
2013-5-17,65.0,53.5,44.4,47.2,42.4,35.8,92,69,37,30.20,29.79,7,1,12,0.00
2013-5-18,68.5,53.0,38.3,49.3,44.3,37.5,99,76,35,30.30,30.20,6,1,0,0.00
2013-5-19,60.8,52.1,47.0,53.9,48.9,45.4,99,89,75,30.35,30.20,5,0,0,0.14
2013-5-20,71.7,58.9,50.3,65.4,56.9,50.0,100,94,77,30.20,29.93,7,0,0,0.26
2013-5-21,58.5,53.1,48.8,57.8,52.6,48.0,100,98,95,30.12,29.92,7,0,0,0.36
2013-5-22,58.2,52.6,48.8,56.5,51.9,48.6,100,98,92,30.01,29.89,3,0,0,0.46
2013-5-23,67.5,58.4,49.4,66.9,57.9,49.1,100,98,92,29.94,29.75,5,0,15,0.08
2013-5-24,68.4,60.5,48.3,67.0,58.9,47.4,100,95,81,29.83,29.61,5,0,0,0.55
2013-5-25,48.6,46.2,39.0,47.7,45.5,38.3,100,98,94,29.83,29.69,6,1,16,0.98
2013-5-26,54.7,45.5,38.7,47.3,41.6,38.2,100,87,66,30.02,29.66,8,1,0,0.11
2013-5-27,65.7,50.4,36.1,46.7,40.7,35.3,99,74,35,30.18,30.02,8,1,18,0.00
2013-5-28,70.3,52.4,33.8,50.9,42.2,33.3,99,73,35,30.25,30.15,7,0,0,0.00
2013-5-29,56.8,52.0,45.2,56.2,51.3,43.6,99,97,93,30.17,29.99,3,0,0,0.16
2013-5-30,81.6,66.7,55.2,71.5,61.9,55.1,100,87,53,30.04,29.97,9,0,0,0.00
2013-5-31,88.0,70.6,54.4,71.3,63.3,54.4,100,81,48,30.06,29.87,7,0,0,0.00
2013-6-1,90.4,73.1,58.1,74.4,65.9,57.8,100,81,45,29.92,29.78,5,0,0,0.00
2013-6-2,89.4,72.2,63.1,76.1,67.2,63.1,100,87,51,29.80,29.60,15,0,32,0.51
2013-6-3,76.8,66.0,56.1,68.5,61.8,53.1,100,88,54,29.78,29.68,7,0,0,0.01
2013-6-4,61.7,54.3,44.4,53.4,47.0,43.1,99,78,53,30.07,29.77,9,1,0,0.00
2013-6-5,69.3,55.9,41.8,53.6,45.7,36.8,100,73,31,30.16,30.06,8,0,0,0.00
2013-6-6,71.7,59.4,48.7,55.5,49.9,41.8,96,73,41,30.19,30.09,5,0,0,0.00
2013-6-7,55.8,52.2,49.7,52.8,50.8,46.9,99,95,82,30.11,29.90,5,0,0,0.65
2013-6-8,70.1,58.8,50.6,63.3,56.5,50.3,100,93,76,29.98,29.67,8,1,16,0.71
2013-6-9,74.2,61.3,48.6,62.5,55.6,48.0,100,84,54,30.15,29.98,8,0,0,0.00
2013-6-10,67.8,58.0,46.5,61.4,55.1,46.2,100,90,73,30.19,30.02,3,0,0,0.15
2013-6-11,58.7,55.0,52.8,57.1,54.3,52.4,100,97,91,30.03,29.57,5,0,0,0.91
2013-6-12,60.9,57.0,53.0,60.4,55.7,52.7,100,96,84,29.80,29.54,7,0,0,0.16
2013-6-13,66.3,56.9,45.1,60.2,54.0,44.6,100,91,62,29.80,29.70,3,0,0,0.07
2013-6-14,73.2,60.0,52.5,61.1,55.6,50.0,100,87,47,29.75,29.66,8,0,0,0.00
2013-6-15,73.5,58.9,46.1,54.9,49.5,43.2,100,76,37,29.90,29.75,9,0,0,0.00
2013-6-16,72.3,58.4,44.5,61.6,54.5,44.0,100,88,53,29.91,29.69,6,0,0,0.00
2013-6-17,79.8,62.6,49.8,66.2,57.9,49.4,100,86,47,29.86,29.73,7,0,0,0.01
2013-6-18,61.9,57.6,51.8,59.4,56.5,51.5,100,96,82,29.96,29.85,4,0,0,0.08
2013-6-19,71.0,57.7,44.2,58.7,50.7,43.7,100,80,46,30.14,29.92,7,0,0,0.01
2013-6-20,73.3,58.2,41.8,59.2,50.5,41.0,100,79,45,30.25,30.14,7,0,0,0.00
2013-6-21,78.1,62.9,48.0,64.0,55.4,47.5,99,80,43,30.23,30.16,7,0,0,0.00
2013-6-22,80.3,65.6,53.5,70.6,62.4,52.9,100,91,64,30.20,30.07,7,0,0,0.02
2013-6-23,80.8,68.7,61.1,75.9,67.5,60.8,100,96,78,30.11,29.92,8,0,0,0.91
2013-6-24,86.2,71.6,63.4,76.4,68.7,63.4,100,92,58,29.96,29.82,7,0,0,0.16
2013-6-25,86.0,72.7,65.5,76.4,69.6,65.5,100,91,62,29.88,29.68,8,0,12,0.08
2013-6-26,73.9,67.3,60.0,72.2,66.9,59.6,100,99,85,29.85,29.67,3,0,0,0.18
2013-6-27,70.1,63.3,57.9,68.3,62.4,57.7,100,97,91,29.84,29.75,3,0,0,0.07
2013-6-28,63.6,59.5,56.0,63.3,59.4,56.0,100,100,96,29.78,29.49,5,0,0,1.43
2013-6-29,80.9,68.9,62.0,74.8,67.0,62.0,100,94,72,29.66,29.50,6,0,0,0.59
2013-6-30,81.1,69.8,62.2,75.1,68.0,62.2,100,95,74,29.90,29.66,11,0,16,0.63
2013-7-1,74.3,69.5,64.6,73.5,69.2,64.5,100,99,93,30.04,29.89,3,0,0,0.30
2013-7-2,69.7,63.3,59.3,69.7,63.2,59.0,100,100,99,30.19,30.03,8,0,0,0.32
2013-7-3,83.8,70.0,59.6,77.8,68.3,59.6,100,95,78,30.18,30.06,7,0,0,0.10
2013-7-4,87.8,75.0,64.5,79.3,71.9,64.5,100,91,65,30.15,30.01,5,0,0,0.00
2013-7-5,88.8,77.2,66.6,80.2,73.0,66.6,100,88,65,30.10,29.95,7,0,0,0.00
2013-7-6,84.6,75.2,65.5,75.4,71.1,65.0,100,88,65,30.01,29.91,7,0,0,0.00
2013-7-7,82.7,71.0,61.6,75.2,68.4,61.6,100,92,66,29.97,29.87,6,0,0,0.06
2013-7-8,77.9,69.7,63.2,74.3,68.6,62.9,100,97,86,30.04,29.87,4,0,0,0.89
2013-7-9,70.5,66.6,63.3,69.9,66.1,63.3,100,98,92,30.09,30.03,2,0,0,0.06
2013-7-10,70.3,66.4,63.7,70.1,66.3,63.7,100,100,98,30.05,29.75,2,0,0,0.34
2013-7-11,79.1,71.0,66.7,74.7,69.7,62.1,100,96,75,29.93,29.72,8,0,0,0.02
2013-7-12,78.4,68.0,58.9,68.7,62.3,57.8,100,83,58,30.19,29.93,5,0,0,0.00
2013-7-13,77.5,67.1,55.3,71.0,63.6,55.3,100,90,59,30.29,30.19,4,0,0,0.00
2013-7-14,81.4,72.1,63.2,75.4,69.8,63.1,100,93,76,30.27,30.16,4,0,0,0.00
2013-7-15,87.4,73.6,62.7,77.7,69.4,62.6,100,88,56,30.18,30.05,7,0,0,0.00
2013-7-16,87.8,73.3,61.5,78.0,69.7,61.5,100,90,59,30.14,30.08,4,0,0,0.00
2013-7-17,88.6,75.6,64.3,77.7,70.9,64.3,100,87,59,30.14,29.92,8,0,0,0.36
2013-7-18,86.6,73.8,66.5,77.5,71.6,66.5,100,94,64,29.99,29.90,5,0,0,0.27
2013-7-19,89.5,77.1,66.6,79.9,73.1,66.5,100,89,62,29.91,29.63,10,1,0,0.00
2013-7-20,84.9,73.9,64.9,74.5,70.0,64.7,100,89,64,29.75,29.58,8,0,12,0.05
2013-7-21,77.7,67.4,58.8,68.7,63.7,58.4,100,89,60,29.98,29.75,6,0,0,0.00
2013-7-22,70.7,65.2,59.3,69.8,64.6,59.0,100,98,94,30.02,29.89,3,0,0,0.24
2013-7-23,68.6,63.7,59.9,68.6,63.7,59.9,100,100,99,29.90,29.52,5,0,0,2.30
2013-7-24,78.3,66.6,51.9,72.7,63.1,51.4,100,89,68,29.96,29.55,7,0,0,0.01
2013-7-25,70.4,59.5,48.3,62.9,55.7,47.9,100,89,66,30.10,29.96,5,0,0,0.00
2013-7-26,75.4,63.8,60.3,66.9,62.7,60.3,100,96,82,30.08,29.91,8,0,0,0.15
2013-7-27,79.6,67.1,56.8,69.4,62.6,56.8,100,88,51,30.01,29.93,7,0,0,0.01
2013-7-28,77.8,65.9,56.7,71.0,64.1,56.7,100,94,71,30.00,29.96,5,0,0,0.02
2013-7-29,79.6,67.0,59.8,71.7,65.3,59.8,100,95,70,30.02,29.92,5,0,0,1.47
2013-7-30,74.9,64.6,55.5,66.2,60.3,54.7,100,88,55,30.07,30.00,9,0,0,0.01
2013-7-31,77.6,63.9,51.3,66.3,58.6,51.3,100,85,45,30.11,30.01,7,0,0,0.00
2013-8-1,79.0,64.7,53.9,68.6,61.9,53.9,100,92,61,30.02,29.84,6,0,0,0.29
2013-8-2,77.6,66.8,58.4,69.9,63.8,58.1,100,91,59,29.84,29.72,9,0,0,0.34
2013-8-3,75.3,65.8,55.4,65.2,60.5,54.8,100,84,57,29.81,29.72,12,1,12,0.01
2013-8-4,74.6,61.2,51.0,63.2,56.8,50.7,100,87,60,29.85,29.75,14,0,14,0.00
2013-8-5,70.7,59.3,47.4,57.1,51.3,45.4,98,77,47,30.04,29.84,7,0,0,0.00
2013-8-6,74.5,58.8,43.9,62.0,52.6,43.4,100,83,46,30.14,30.03,6,0,0,0.00
2013-8-7,76.5,61.3,47.1,66.1,56.3,46.8,100,85,55,30.17,30.08,7,0,0,0.00
2013-8-8,79.2,66.8,56.6,73.6,65.2,55.9,100,95,75,30.09,29.96,5,0,0,0.07
2013-8-9,72.0,69.5,66.5,72.0,69.5,66.5,100,100,100,29.98,29.69,6,0,0,1.20
2013-8-10,75.2,65.0,51.3,67.0,60.3,50.8,100,86,49,29.99,29.74,10,0,0,0.00
2013-8-11,74.3,60.0,48.5,61.4,54.7,48.2,100,85,52,30.05,29.97,5,0,0,0.00
2013-8-12,76.5,63.3,51.7,65.6,58.3,51.4,100,86,56,30.00,29.88,10,0,0,0.00
2013-8-13,67.6,62.3,54.8,67.5,62.1,54.8,100,99,90,29.90,29.66,3,0,0,0.79
2013-8-14,70.8,62.8,53.2,64.5,58.2,51.7,100,86,60,29.90,29.62,12,1,12,0.00
2013-8-15,71.6,58.9,49.4,60.0,53.9,48.9,100,85,55,30.08,29.90,8,0,0,0.00
2013-8-16,74.0,60.0,48.7,63.3,55.3,48.4,100,86,54,30.17,30.07,7,0,0,0.00
2013-8-17,76.5,61.6,49.7,64.1,56.5,49.4,100,86,51,30.26,30.17,9,0,0,0.00
2013-8-18,74.3,62.5,51.5,67.3,59.5,51.2,100,91,69,30.26,30.05,7,0,0,0.00
2013-8-19,78.2,64.8,52.5,67.5,60.7,52.2,100,88,61,30.05,29.90,8,0,0,0.00
2013-8-20,80.5,66.2,54.6,70.2,62.0,54.6,100,88,57,30.06,29.94,9,0,0,0.00
2013-8-21,82.5,67.7,56.5,71.1,63.7,56.4,100,89,59,30.12,29.97,8,0,0,0.00
2013-8-22,83.8,70.0,57.4,72.2,65.5,57.4,100,87,57,29.99,29.75,10,0,0,0.00
2013-8-23,75.5,65.0,50.3,67.1,57.8,48.0,99,80,42,30.13,29.77,8,0,0,0.00
2013-8-24,66.2,52.3,46.5,57.1,50.5,45.9,99,94,67,30.32,30.13,1,0,0,0.00
2013-8-25,76.5,60.3,45.0,63.6,55.0,44.7,100,85,51,30.36,30.13,7,0,0,0.00
2013-8-26,74.8,65.8,57.8,69.7,64.4,57.4,100,96,81,30.13,29.84,8,0,0,0.12
2013-8-27,64.8,62.2,60.3,64.8,62.2,60.3,100,100,100,29.86,29.82,0,0,0,0.00
2013-11-25,26.8,26.6,26.5,17.7,17.2,16.7,68,67,66,30.25,30.21,4,0,0,0.00
2013-11-26,33.1,29.2,25.6,30.5,26.1,17.2,97,88,67,30.30,30.10,5,0,0,0.01
2013-11-27,44.0,36.5,31.2,44.0,36.2,30.4,100,99,96,30.09,29.20,9,1,0,1.24
2013-11-28,33.4,25.9,17.2,31.1,17.2,7.8,96,70,49,30.39,29.32,15,2,15,0.00
2013-11-29,26.8,17.0,6.7,13.1,9.5,4.4,91,74,46,30.75,30.38,10,1,0,0.00
2013-11-30,28.6,16.5,3.3,20.8,10.6,0.8,91,79,51,30.82,30.43,6,1,0,0.01
2013-12-1,34.4,30.5,24.6,32.5,28.5,20.7,98,92,81,30.43,30.03,5,0,0,0.03
2013-12-2,38.6,34.4,32.4,37.0,33.6,31.6,98,97,92,30.04,29.90,7,0,0,0.01
2013-12-3,38.6,31.8,23.5,37.0,31.1,22.8,100,97,93,29.92,29.85,2,0,0,0.00
2013-12-4,38.8,29.0,22.2,30.8,14.1,-99.9,98,90,73,30.19,29.91,6,0,0,0.01
2013-12-5,33.9,31.5,23.7,33.6,30.5,23.0,100,96,87,30.23,29.89,6,0,0,0.08
2013-12-6,43.2,37.3,32.1,42.4,34.5,25.9,100,90,68,30.11,29.83,5,1,0,0.06
2013-12-7,35.9,29.6,21.5,30.7,22.7,14.4,97,76,53,30.41,30.06,11,1,0,0.01
2013-12-8,27.7,22.4,15.1,17.5,14.4,11.5,91,72,51,30.56,30.41,7,0,0,0.00
2013-12-9,25.5,23.2,20.3,24.8,19.5,12.0,97,86,61,30.51,29.84,8,1,0,0.00
2013-12-10,33.3,26.3,18.4,30.3,23.5,13.7,99,89,74,29.91,29.74,8,1,0,0.00
2013-12-11,28.2,22.1,17.1,20.1,15.2,12.7,91,75,57,30.12,29.91,18,2,18,0.00
2013-12-12,19.7,10.3,3.1,15.9,3.7,-0.6,92,76,49,30.26,29.99,8,1,0,0.00
2013-12-13,22.4,10.8,-2.7,15.1,4.1,-6.2,91,74,53,30.39,29.92,9,1,0,0.00
2013-12-14,13.0,5.8,-4.8,6.2,-1.9,-7.4,89,71,44,30.61,30.31,8,1,0,0.00
2013-12-15,25.2,16.5,8.2,24.1,14.8,5.7,96,93,89,30.30,29.45,21,3,21,0.00
2013-12-16,23.3,13.8,3.5,17.7,9.3,-2.1,95,83,61,30.19,29.65,15,2,15,0.01
2013-12-17,11.4,2.2,-13.8,9.3,-1.1,-15.8,92,84,67,30.29,30.03,6,0,0,0.00
2013-12-18,29.6,17.2,9.2,22.5,14.4,7.1,94,89,70,30.04,29.86,7,1,0,0.00
2013-12-19,34.4,22.2,12.5,27.0,19.2,10.6,97,89,67,30.08,29.92,9,0,0,0.00
2013-12-20,35.1,30.0,23.3,33.6,29.0,22.1,99,96,93,30.11,29.89,2,0,0,0.01
2013-12-21,40.1,33.8,31.7,37.7,33.3,31.4,100,98,91,29.92,29.82,4,0,0,0.09
2013-12-22,37.4,31.3,27.8,37.4,30.9,27.3,100,98,97,30.06,29.82,9,1,0,0.36
2013-12-23,32.4,30.4,27.4,32.4,30.1,26.9,100,99,98,30.10,29.96,4,0,0,0.26
2013-12-24,32.2,24.8,14.5,32.2,23.0,10.8,100,93,79,30.18,30.03,6,1,0,0.00
2013-12-25,16.7,9.4,3.6,10.7,5.2,-0.2,92,83,67,30.54,30.18,7,1,0,0.00
2013-12-26,23.6,15.0,6.2,22.4,13.4,4.0,95,93,90,30.50,30.09,2,0,0,0.00
2013-12-27,31.1,16.4,5.6,26.3,13.8,3.6,98,90,71,30.23,30.15,7,0,0,0.09
2013-12-28,35.8,23.8,7.6,33.2,22.1,5.5,98,93,84,30.18,29.95,6,0,0,0.02
2013-12-29,34.4,28.8,21.3,32.9,28.1,20.3,99,97,90,30.00,29.53,2,0,0,0.08
2013-12-30,32.7,23.8,4.4,32.7,21.7,1.2,100,92,80,30.15,29.51,7,1,0,0.00
2013-12-31,13.1,2.0,-7.1,8.2,-1.1,-9.1,91,85,65,30.15,30.02,5,0,0,0.00
2014-1-1,18.2,4.6,-7.7,11.4,1.0,-9.7,92,84,67,30.40,30.14,9,1,0,0.00
2014-1-2,8.7,2.7,-3.6,6.9,0.2,-5.8,92,88,85,30.39,29.97,11,2,0,0.00